Time;durP1;ratioP1;P1;durP2;ratioP2;P2;SDS_P1;SDS_P2;PMS_P1;PMS_P2;Temp;Humidity;BMP_temperature;BMP_pressure;BME280_temperature;BME280_humidity;BME280_pressure;Samples;Min_cycle;Max_cycle;Signal;HPM_P1;HPM_P2
2022/01/27 00:05:19;;;;;;;;;64.50;46.50;;;;;4.81;65.73;102561.91;4996333;28;46495;-60
2022/01/27 00:07:52;;;;;;;;;59.50;47.25;;;;;4.82;65.88;102566.22;4996600;28;45286;-62
2022/01/27 00:12:49;;;;;;;;;68.00;49.75;;;;;4.84;66.16;102555.75;4996304;28;45973;-61
2022/01/27 00:15:16;;;;;;;;;65.25;46.25;;;;;4.87;65.96;102559.09;4978855;28;45199;-61
2022/01/27 00:17:46;;;;;;;;;68.00;50.75;;;;;4.88;65.76;102553.00;4981654;28;45279;-61
2022/01/27 00:20:12;;;;;;;;;63.75;46.50;;;;;4.89;65.36;102559.91;4982698;28;45452;-61
2022/01/27 00:22:38;;;;;;;;;62.25;46.25;;;;;4.89;65.45;102552.09;4981844;28;47094;-60
2022/01/27 00:25:05;;;;;;;;;65.00;44.00;;;;;4.90;65.77;102547.75;4999691;28;45457;-61
2022/01/27 00:27:31;;;;;;;;;60.00;45.00;;;;;4.90;65.30;102542.53;4999711;28;45311;-60
2022/01/27 00:29:56;;;;;;;;;62.00;47.25;;;;;4.89;65.47;102540.84;4999467;28;45583;-61
2022/01/27 00:32:22;;;;;;;;;72.50;51.75;;;;;4.90;65.34;102543.38;4998813;28;64390;-61
2022/01/27 00:34:47;;;;;;;;;64.50;46.50;;;;;4.90;65.49;102538.16;4982067;28;45409;-61
2022/01/27 00:37:12;;;;;;;;;63.25;49.25;;;;;4.91;65.24;102552.06;4998473;28;66621;-62
2022/01/27 00:39:38;;;;;;;;;68.75;50.50;;;;;4.90;65.26;102538.16;4998782;28;59593;-61
2022/01/27 00:42:03;;;;;;;;;63.00;46.00;;;;;4.92;65.34;102535.53;4998622;28;65802;-61
2022/01/27 00:44:29;;;;;;;;;58.25;44.50;;;;;4.91;65.79;102528.63;4981572;28;45425;-61
2022/01/27 00:46:54;;;;;;;;;57.75;43.25;;;;;4.92;65.75;102524.25;4999362;28;45175;-63
2022/01/27 00:49:20;;;;;;;;;56.00;43.00;;;;;4.89;65.95;102509.56;4999272;28;45370;-62
2022/01/27 00:51:46;;;;;;;;;64.00;46.25;;;;;4.88;66.19;102508.72;4981010;28;45516;-62
2022/01/27 00:54:22;;;;;;;;;65.75;48.00;;;;;4.88;65.94;102502.66;4998879;28;45330;-61
2022/01/27 01:02:03;;;;;;;;;68.00;49.25;;;;;4.84;65.24;102495.84;4981996;28;45894;-61
2022/01/27 01:04:33;;;;;;;;;61.75;45.25;;;;;4.83;65.19;102492.38;4983747;28;45936;-62
2022/01/27 01:06:58;;;;;;;;;59.75;45.75;;;;;4.81;65.23;102499.38;4966379;28;45421;-61
2022/01/27 01:14:53;;;;;;;;;62.75;47.00;;;;;4.80;65.23;102481.22;4981705;28;45671;-61
2022/01/27 01:19:59;;;;;;;;;64.75;45.75;;;;;4.81;65.25;102475.09;4998702;28;45580;-62
2022/01/27 01:30:46;;;;;;;;;64.50;45.00;;;;;4.82;64.89;102472.44;4998476;28;45464;-61
2022/01/27 01:33:19;;;;;;;;;58.50;42.25;;;;;4.83;64.73;102462.88;4998460;28;45389;-61
2022/01/27 01:35:48;;;;;;;;;69.25;49.25;;;;;4.82;64.64;102464.63;4998394;28;45385;-61
2022/01/27 01:38:26;;;;;;;;;66.25;47.00;;;;;4.85;64.64;102466.28;4998544;28;45196;-61
2022/01/27 01:40:52;;;;;;;;;66.00;47.25;;;;;4.83;64.69;102463.72;4998640;28;45310;-62
2022/01/27 01:43:17;;;;;;;;;60.25;44.75;;;;;4.82;64.73;102462.03;4998309;28;45498;-62
2022/01/27 01:45:43;;;;;;;;;56.50;42.00;;;;;4.83;64.87;102457.69;4980048;28;61105;-60
2022/01/27 01:48:08;;;;;;;;;64.50;46.50;;;;;4.82;64.62;102458.59;4998326;28;45391;-63
2022/01/27 01:50:34;;;;;;;;;59.00;44.25;;;;;4.84;64.47;102462.00;4980515;28;45500;-62
2022/01/27 01:53:00;;;;;;;;;57.50;43.00;;;;;4.82;64.62;102456.81;4964180;28;46291;-63
2022/01/27 01:55:25;;;;;;;;;59.50;43.50;;;;;4.84;64.44;102464.59;4964181;28;47627;-61
2022/01/27 01:57:51;;;;;;;;;59.50;42.25;;;;;4.82;64.65;102456.81;4997526;28;62468;-63
2022/01/27 02:00:16;;;;;;;;;61.50;45.50;;;;;4.82;64.84;102461.19;4980569;28;45299;-62
2022/01/27 02:02:42;;;;;;;;;57.50;43.25;;;;;4.82;64.90;102462.03;4997899;28;45582;-62
2022/01/27 02:05:08;;;;;;;;;67.25;49.25;;;;;4.82;64.71;102456.81;4997697;28;50998;-62
2022/01/27 02:10:27;;;;;;;;;66.25;44.50;;;;;4.84;64.93;102449.81;4980532;28;45317;-61
2022/01/27 02:18:20;;;;;;;;;64.00;47.50;;;;;4.82;65.10;102441.19;4982968;28;45452;-62
2022/01/27 02:20:45;;;;;;;;;68.75;48.00;;;;;4.79;65.04;102440.44;4997381;28;54855;-63
2022/01/27 02:23:11;;;;;;;;;56.50;46.25;;;;;4.77;65.20;102437.88;4996986;28;67219;-61
2022/01/27 02:25:36;;;;;;;;;66.75;46.00;;;;;4.77;65.50;102437.03;4979945;28;45317;-62
2022/01/27 02:28:02;;;;;;;;;67.25;48.75;;;;;4.75;65.27;102435.34;4997121;28;54523;-62
2022/01/27 02:30:27;;;;;;;;;73.00;49.75;;;;;4.75;65.46;102421.47;4997624;28;45557;-63
2022/01/27 02:32:53;;;;;;;;;66.50;44.50;;;;;4.74;65.45;102432.81;4997185;28;54719;-61
2022/01/27 02:35:21;;;;;;;;;66.75;48.00;;;;;4.72;65.52;102429.41;4997586;28;47038;-63
2022/01/27 02:37:46;;;;;;;;;59.25;43.00;;;;;4.72;65.68;102434.59;4997655;28;45357;-62
2022/01/27 02:40:12;;;;;;;;;66.75;48.00;;;;;4.72;65.34;102435.44;4997367;28;45304;-62
2022/01/27 02:42:37;;;;;;;;;66.75;46.25;;;;;4.71;65.43;102425.09;4979721;28;46126;-62
2022/01/27 02:45:04;;;;;;;;;62.00;43.00;;;;;4.68;65.46;102415.59;4979770;28;45322;-61
2022/01/27 02:47:30;;;;;;;;;58.75;42.25;;;;;4.66;66.01;102427.81;4997243;28;45282;-61
2022/01/27 02:49:55;;;;;;;;;66.00;46.75;;;;;4.65;65.61;102426.13;4979585;28;45509;-61
2022/01/27 02:52:21;;;;;;;;;62.75;44.00;;;;;4.64;65.66;102405.38;4996955;28;45315;-62
2022/01/27 02:54:47;;;;;;;;;60.50;45.75;;;;;4.64;65.69;102413.19;4979352;28;45383;-62
2022/01/27 02:57:13;;;;;;;;;61.75;46.50;;;;;4.63;65.93;102420.13;4963552;28;45456;-62
2022/01/27 02:59:39;;;;;;;;;63.00;46.75;;;;;4.63;65.99;102408.88;4997235;28;45500;-61
2022/01/27 03:02:04;;;;;;;;;65.50;45.75;;;;;4.58;66.01;102412.47;4997293;28;46337;-62
2022/01/27 03:04:30;;;;;;;;;59.75;46.25;;;;;4.58;65.88;102416.81;4996872;28;45393;-61
2022/01/27 03:06:56;;;;;;;;;60.75;43.75;;;;;4.56;66.07;102413.41;4979518;28;45361;-62
2022/01/27 03:09:21;;;;;;;;;68.25;48.75;;;;;4.56;66.21;102401.25;4979388;28;45452;-64
2022/01/27 03:11:50;;;;;;;;;60.50;45.25;;;;;4.56;66.20;102403.84;4996181;28;64182;-63
2022/01/27 03:14:21;;;;;;;;;65.50;47.25;;;;;4.57;66.17;102402.97;4963718;28;45370;-63
2022/01/27 03:16:47;;;;;;;;;62.00;45.75;;;;;4.52;66.11;102397.06;4996998;28;45393;-62
2022/01/27 03:19:12;;;;;;;;;65.00;47.00;;;;;4.50;66.23;102406.66;4979411;28;45457;-62
2022/01/27 03:21:38;;;;;;;;;66.00;47.75;;;;;4.48;66.00;102400.66;4979132;28;46101;-61
2022/01/27 03:24:04;;;;;;;;;63.00;42.75;;;;;4.48;66.42;102405.03;4996862;28;45440;-62
2022/01/27 03:26:29;;;;;;;;;59.25;43.50;;;;;4.49;66.33;102404.97;4979161;28;45465;-61
2022/01/27 03:28:55;;;;;;;;;59.75;43.00;;;;;4.49;66.51;102407.56;4996985;28;45599;-62
2022/01/27 03:31:20;;;;;;;;;61.00;42.25;;;;;4.48;66.39;102400.66;4978720;28;45556;-62
2022/01/27 03:33:46;;;;;;;;;61.50;45.50;;;;;4.48;66.34;102399.81;4996558;28;45362;-62
2022/01/27 03:36:13;;;;;;;;;65.50;47.00;;;;;4.47;66.18;102403.31;4996426;28;46372;-61
2022/01/27 03:38:38;;;;;;;;;61.00;43.25;;;;;4.46;66.45;102412.88;4979243;28;45254;-61
2022/01/27 03:41:08;;;;;;;;;61.00;44.75;;;;;4.45;66.51;102405.97;4962715;28;45347;-62
2022/01/27 03:43:35;;;;;;;;;61.50;45.00;;;;;4.45;66.58;102416.38;4979090;28;45333;-61
2022/01/27 03:46:00;;;;;;;;;63.50;43.75;;;;;4.45;66.55;102419.84;4996807;28;45274;-62
2022/01/27 03:48:25;;;;;;;;;57.50;42.00;;;;;4.46;66.54;102415.47;4995696;28;64681;-61
2022/01/27 03:50:51;;;;;;;;;61.25;43.25;;;;;4.47;66.42;102411.13;4996853;28;45845;-61
2022/01/27 03:53:16;;;;;;;;;63.75;46.00;;;;;4.44;66.23;102405.13;5001694;28;73532;-61
2022/01/27 03:55:42;;;;;;;;;62.50;43.00;;;;;4.42;66.76;102411.25;5002582;28;53948;-62
2022/01/27 03:58:07;;;;;;;;;58.75;42.50;;;;;4.41;66.43;102399.16;5002999;28;46113;-62
2022/01/27 04:00:33;;;;;;;;;58.00;40.75;;;;;4.41;66.57;102401.75;4984357;28;71295;-60
2022/01/27 04:03:04;;;;;;;;;63.50;43.75;;;;;4.41;66.46;102404.34;4985279;28;45425;-63
2022/01/27 04:05:35;;;;;;;;;63.50;42.25;;;;;4.38;66.69;102402.72;4986237;28;45433;-61
2022/01/27 04:08:01;;;;;;;;;60.50;41.50;;;;;4.39;66.65;102400.94;5001652;28;45338;-63
2022/01/27 04:10:27;;;;;;;;;57.75;41.00;;;;;4.40;66.56;102406.13;4985071;28;45408;-62
2022/01/27 04:12:52;;;;;;;;;57.25;41.25;;;;;4.37;66.61;102406.22;5002368;28;55543;-61
2022/01/27 04:15:17;;;;;;;;;59.25;44.25;;;;;4.36;66.59;102403.66;4984422;28;63338;-63
2022/01/27 04:17:43;;;;;;;;;56.00;40.75;;;;;4.34;66.92;102397.63;5002172;28;58877;-62
2022/01/27 04:20:09;;;;;;;;;58.75;40.00;;;;;4.33;66.91;102402.00;5002432;28;52859;-62
2022/01/27 04:22:34;;;;;;;;;58.50;43.25;;;;;4.34;66.99;102398.50;4984935;28;45358;-63
2022/01/27 04:24:59;;;;;;;;;61.25;47.00;;;;;4.37;66.84;102397.53;5001962;28;62559;-62
2022/01/27 04:27:30;;;;;;;;;58.75;40.00;;;;;4.38;67.01;102400.13;5002654;28;45591;-63
2022/01/27 04:29:55;;;;;;;;;57.75;40.25;;;;;4.39;66.81;102400.94;5001845;28;46407;-61
2022/01/27 04:32:26;;;;;;;;;62.25;40.00;;;;;4.39;66.45;102395.75;5002446;28;45353;-62
2022/01/27 04:34:54;;;;;;;;;58.25;42.50;;;;;4.40;66.79;102402.66;4986065;28;45316;-60
2022/01/27 04:37:23;;;;;;;;;53.50;40.25;;;;;4.41;66.95;102401.75;5002576;28;45231;-61
2022/01/27 04:40:00;;;;;;;;;55.00;38.25;;;;;4.43;66.71;102405.16;5002473;28;45547;-62
2022/01/27 04:42:42;;;;;;;;;56.75;42.00;;;;;4.41;66.86;102410.44;4984516;28;45575;-62
2022/01/27 04:45:09;;;;;;;;;49.00;39.00;;;;;4.40;66.73;102400.91;4984880;28;45392;-61
2022/01/27 04:47:41;;;;;;;;;57.25;39.75;;;;;4.43;66.90;102402.56;4985219;28;45295;-62
2022/01/27 04:50:06;;;;;;;;;57.50;39.75;;;;;4.42;66.66;102401.72;4984457;28;45531;-62
2022/01/27 04:52:36;;;;;;;;;53.25;35.25;;;;;4.41;66.78;102404.34;5001939;28;45553;-63
2022/01/27 04:55:06;;;;;;;;;54.00;40.00;;;;;4.38;66.74;102399.25;5002625;28;45342;-62
2022/01/27 04:57:32;;;;;;;;;59.25;42.50;;;;;4.36;66.73;102390.63;4984635;28;45455;-63
2022/01/27 04:59:58;;;;;;;;;49.25;34.00;;;;;4.36;66.72;102395.84;5002239;28;46271;-60
2022/01/27 05:04:54;;;;;;;;;57.25;41.75;;;;;4.31;66.91;102391.63;4998393;28;45385;-62
2022/01/27 05:07:20;;;;;;;;;51.75;39.75;;;;;4.30;66.97;102400.34;4998233;28;60284;-61
2022/01/27 05:09:56;;;;;;;;;57.25;42.00;;;;;4.31;66.82;102394.22;4998954;28;46331;-61
2022/01/27 05:12:34;;;;;;;;;60.00;42.00;;;;;4.30;67.11;102383.88;4982661;28;46487;-61
2022/01/27 05:15:00;;;;;;;;;55.00;40.25;;;;;4.30;66.81;102387.31;4999062;28;45336;-62
2022/01/27 05:17:25;;;;;;;;;53.25;39.50;;;;;4.30;66.66;102383.88;4998892;28;45488;-62
2022/01/27 05:19:51;;;;;;;;;54.25;41.50;;;;;4.28;66.79;102372.69;4980696;28;46425;-63
2022/01/27 05:22:17;;;;;;;;;54.25;41.00;;;;;4.29;66.97;102379.59;4998666;28;45231;-62
2022/01/27 05:24:42;;;;;;;;;46.50;37.25;;;;;4.26;67.01;102377.91;4998747;28;45295;-62
2022/01/27 05:27:07;;;;;;;;;54.75;42.00;;;;;4.28;67.12;102386.53;4964792;28;45214;-62
2022/01/27 05:29:33;;;;;;;;;50.25;40.00;;;;;4.28;67.04;102381.31;4998035;28;59064;-61
2022/01/27 05:31:58;;;;;;;;;50.00;37.75;;;;;4.27;66.85;102387.41;4997753;28;62302;-63
2022/01/27 05:34:24;;;;;;;;;54.50;37.75;;;;;4.26;66.71;102384.88;4997932;28;54935;-61
2022/01/27 05:36:49;;;;;;;;;58.75;40.75;;;;;4.24;66.92;102384.91;4998125;28;58646;-63
2022/01/27 05:39:14;;;;;;;;;57.75;42.00;;;;;4.23;66.77;102385.84;4997567;28;67518;-61
2022/01/27 05:41:43;;;;;;;;;52.50;39.50;;;;;4.23;66.85;102383.25;4997523;28;64654;-62
2022/01/27 05:44:09;;;;;;;;;52.75;37.75;;;;;4.24;66.84;102382.31;4998478;28;45347;-61
2022/01/27 05:46:34;;;;;;;;;56.25;38.00;;;;;4.24;66.80;102376.28;4998402;28;45531;-62
2022/01/27 05:48:59;;;;;;;;;60.75;39.75;;;;;4.21;67.07;102366.81;4979778;28;66274;-62
2022/01/27 05:51:25;;;;;;;;;46.25;36.00;;;;;4.18;67.21;102377.34;4998115;28;45459;-61
2022/01/27 05:53:50;;;;;;;;;54.50;38.00;;;;;4.16;67.18;102369.56;4997411;28;59704;-62
2022/01/27 05:56:15;;;;;;;;;51.75;39.00;;;;;4.17;66.76;102365.22;4980345;28;48949;-62
2022/01/27 05:58:41;;;;;;;;;52.25;35.00;;;;;4.17;67.12;102373.03;4979550;28;69542;-63
2022/01/27 06:01:06;;;;;;;;;56.75;40.00;;;;;4.15;66.97;102365.25;4997465;28;62247;-62
2022/01/27 06:03:32;;;;;;;;;51.25;40.25;;;;;4.16;66.99;102376.53;4997272;28;62378;-62
2022/01/27 06:05:57;;;;;;;;;55.00;39.25;;;;;4.15;66.98;102373.06;4997069;28;66879;-62
2022/01/27 06:08:23;;;;;;;;;56.25;37.50;;;;;4.18;66.94;102373.88;4997512;28;53479;-62
2022/01/27 06:10:50;;;;;;;;;49.75;36.00;;;;;4.18;66.92;102381.66;4997623;28;45409;-63
2022/01/27 06:13:15;;;;;;;;;58.00;38.75;;;;;4.17;66.96;102383.44;4998101;28;45399;-62
2022/01/27 06:15:41;;;;;;;;;57.00;39.50;;;;;4.18;67.05;102386.88;4979014;28;63208;-61
2022/01/27 06:18:06;;;;;;;;;47.00;36.00;;;;;4.16;66.98;102386.94;4997612;28;45366;-62
2022/01/27 06:20:32;;;;;;;;;55.25;39.25;;;;;4.15;67.12;102391.28;4997653;28;45305;-62
2022/01/27 06:22:58;;;;;;;;;53.75;36.50;;;;;4.16;66.90;102390.38;4997825;28;45389;-62
2022/01/27 06:25:23;;;;;;;;;45.75;35.25;;;;;4.13;67.10;102390.47;4980144;28;45571;-62
2022/01/27 06:27:49;;;;;;;;;54.75;35.75;;;;;4.14;67.30;102393.94;4997158;28;45424;-62
2022/01/27 06:30:14;;;;;;;;;52.50;36.00;;;;;4.13;67.35;102394.84;4996557;28;62920;-62
2022/01/27 06:32:40;;;;;;;;;50.00;36.25;;;;;4.14;67.15;102396.53;4978980;28;64673;-62
2022/01/27 06:35:06;;;;;;;;;46.25;36.50;;;;;4.15;67.11;102404.28;4997291;28;45600;-62
2022/01/27 06:37:31;;;;;;;;;56.75;39.50;;;;;4.15;66.89;102401.69;4979683;28;47588;-62
2022/01/27 06:39:57;;;;;;;;;55.00;40.00;;;;;4.16;67.21;102399.94;4963629;28;45260;-62
2022/01/27 06:42:22;;;;;;;;;48.25;35.50;;;;;4.16;67.02;102394.75;4997222;28;45373;-62
2022/01/27 06:44:48;;;;;;;;;50.50;39.50;;;;;4.14;66.99;102401.75;4996558;28;63340;-62
2022/01/27 06:47:13;;;;;;;;;50.00;37.00;;;;;4.15;66.92;102395.63;4997147;28;46317;-62
2022/01/27 06:49:39;;;;;;;;;46.50;36.25;;;;;4.14;67.25;102397.38;4996366;28;60794;-62
2022/01/27 06:52:05;;;;;;;;;51.75;38.50;;;;;4.15;67.38;102404.28;4995750;28;60152;-62
2022/01/27 06:54:31;;;;;;;;;58.75;40.25;;;;;4.17;66.87;102404.25;4979866;28;45393;-61
2022/01/27 06:56:56;;;;;;;;;45.75;37.75;;;;;4.16;67.07;102406.00;4996887;28;46329;-63
2022/01/27 06:59:22;;;;;;;;;59.25;39.25;;;;;4.14;66.89;102410.38;4997002;28;45322;-62
2022/01/27 07:01:47;;;;;;;;;53.00;37.50;;;;;4.13;67.29;102420.84;4997306;28;45787;-63
2022/01/27 07:04:12;;;;;;;;;55.25;37.50;;;;;4.12;67.21;102408.75;4997021;28;45271;-62
2022/01/27 07:06:39;;;;;;;;;55.25;43.00;;;;;4.10;67.35;102400.97;4978751;28;57103;-62
2022/01/27 07:09:04;;;;;;;;;51.75;39.25;;;;;4.11;67.38;102405.28;4996735;28;45693;-61
2022/01/27 07:11:30;;;;;;;;;47.25;35.00;;;;;4.11;67.47;102404.44;4978640;28;58993;-61
2022/01/27 07:13:55;;;;;;;;;49.75;36.75;;;;;4.13;67.45;102408.69;4996666;28;52467;-62
2022/01/27 07:16:20;;;;;;;;;52.50;35.50;;;;;4.13;67.17;102410.44;4978203;28;61043;-63
2022/01/27 07:18:46;;;;;;;;;52.50;37.00;;;;;4.13;67.31;102413.06;4996493;28;47608;-61
2022/01/27 07:21:11;;;;;;;;;49.75;35.75;;;;;4.14;67.15;102415.59;4996568;28;45235;-61
2022/01/27 07:23:37;;;;;;;;;52.75;38.75;;;;;4.16;67.13;102416.38;4996167;28;58963;-63
2022/01/27 07:26:02;;;;;;;;;51.75;36.25;;;;;4.15;67.48;102406.88;4977212;28;68527;-62
2022/01/27 07:28:28;;;;;;;;;51.50;38.25;;;;;4.15;67.23;102413.84;4996391;28;45243;-61
2022/01/27 07:30:53;;;;;;;;;56.50;40.50;;;;;4.15;67.43;102411.25;4995871;28;63248;-62
2022/01/27 07:33:18;;;;;;;;;55.75;38.75;;;;;4.13;67.18;102411.28;4995962;28;58793;-62
2022/01/27 07:35:44;;;;;;;;;54.25;38.75;;;;;4.14;67.38;102409.56;4978448;28;53091;-62
2022/01/27 07:38:09;;;;;;;;;50.25;37.50;;;;;4.15;67.57;102412.09;4996094;28;53569;-63
2022/01/27 07:40:35;;;;;;;;;51.75;36.75;;;;;4.18;67.51;102413.75;4996608;28;45494;-63
2022/01/27 07:43:00;;;;;;;;;39.75;33.25;;;;;4.17;67.36;102406.84;4978783;28;45540;-62
2022/01/27 07:45:26;;;;;;;;;54.00;38.75;;;;;4.19;67.16;102410.25;4995645;28;61767;-63
2022/01/27 07:47:51;;;;;;;;;47.25;39.00;;;;;4.19;67.50;102414.59;4996349;28;45436;-62
2022/01/27 07:50:17;;;;;;;;;50.00;36.50;;;;;4.21;67.47;102408.47;4996309;28;46111;-61
2022/01/27 07:52:42;;;;;;;;;55.25;34.75;;;;;4.21;67.15;102411.06;4995479;28;57020;-62
2022/01/27 07:55:10;;;;;;;;;47.75;37.75;;;;;4.21;67.19;102408.47;4995967;28;45401;-63
2022/01/27 07:57:36;;;;;;;;;58.75;42.00;;;;;4.20;67.48;102409.38;4995241;28;71304;-60
2022/01/27 08:00:04;;;;;;;;;53.50;38.75;;;;;4.20;67.68;102400.69;4996378;28;45175;-61
2022/01/27 08:02:29;;;;;;;;;55.00;41.00;;;;;4.23;67.28;102409.25;4996015;28;45551;-63
2022/01/27 08:04:54;;;;;;;;;60.25;39.00;;;;;4.22;67.31;102407.56;4995329;28;67099;-61
2022/01/27 08:07:20;;;;;;;;;62.50;44.25;;;;;4.23;67.57;102411.88;4995423;28;65090;-62
2022/01/27 08:09:47;;;;;;;;;59.25;43.50;;;;;4.22;67.04;102411.91;4995795;28;59140;-62
2022/01/27 08:12:13;;;;;;;;;53.50;38.75;;;;;4.20;67.28;102414.56;4996505;28;45406;-61
2022/01/27 08:14:38;;;;;;;;;55.50;38.00;;;;;4.22;67.32;102414.50;4996275;28;45333;-62
2022/01/27 08:17:07;;;;;;;;;50.00;40.00;;;;;4.21;67.15;102413.66;4995627;28;62305;-62
2022/01/27 08:19:32;;;;;;;;;52.50;39.50;;;;;4.24;67.19;102418.75;4996251;28;45452;-62
2022/01/27 08:21:58;;;;;;;;;58.00;39.75;;;;;4.23;67.43;102413.59;4995381;28;61552;-62
2022/01/27 08:24:23;;;;;;;;;50.75;39.75;;;;;4.24;67.00;102420.50;4994624;28;47119;-62
2022/01/27 08:26:50;;;;;;;;;62.75;40.25;;;;;4.26;67.22;102432.56;4996034;28;45446;-62
2022/01/27 08:34:30;;;;;;;;;51.50;39.25;;;;;4.25;67.35;102428.25;4996072;28;45377;-61
2022/01/27 08:37:46;;;;;;;;;58.50;40.75;;;;;4.22;67.35;102424.91;4962887;28;45920;-61
2022/01/27 08:40:14;;;;;;;;;55.00;39.25;;;;;4.27;67.20;102421.25;4987852;28;45346;-61
2022/01/27 08:42:40;;;;;;;;;56.75;40.50;;;;;4.28;67.24;102427.31;4982659;28;45421;-62
2022/01/27 08:45:16;;;;;;;;;50.50;36.00;;;;;4.29;67.06;102432.47;4979721;28;45411;-61
2022/01/27 08:47:45;;;;;;;;;59.00;41.00;;;;;4.30;67.07;102428.13;4979606;28;45898;-61
2022/01/27 08:50:11;;;;;;;;;58.25;42.00;;;;;4.31;67.04;102428.06;4976457;28;45263;-62
2022/01/27 08:52:38;;;;;;;;;48.75;34.25;;;;;4.31;67.13;102420.25;4979314;28;45498;-61
2022/01/27 08:55:04;;;;;;;;;62.50;44.25;;;;;4.35;67.02;102430.56;4979525;28;45651;-61
2022/01/27 08:57:30;;;;;;;;;57.25;42.50;;;;;4.34;67.13;102414.13;4961547;28;45669;-62
2022/01/27 08:59:56;;;;;;;;;60.50;43.00;;;;;4.35;67.11;102421.03;4978486;28;59052;-62
2022/01/27 09:02:21;;;;;;;;;56.50;41.75;;;;;4.38;67.05;102414.84;4979424;28;45612;-62
2022/01/27 09:04:47;;;;;;;;;62.50;45.50;;;;;4.40;67.31;102423.47;4961459;28;46085;-62
2022/01/27 09:07:12;;;;;;;;;53.25;39.75;;;;;4.42;66.87;102413.88;4961509;28;45317;-62
2022/01/27 09:09:47;;;;;;;;;58.75;39.75;;;;;4.45;66.98;102412.03;4960969;28;55146;-63
2022/01/27 09:12:13;;;;;;;;;48.00;38.75;;;;;4.48;66.80;102405.84;4979276;28;45579;-61
2022/01/27 09:14:40;;;;;;;;;55.50;42.75;;;;;4.51;66.83;102400.56;4978778;28;46286;-63
2022/01/27 09:17:09;;;;;;;;;58.00;44.00;;;;;4.53;66.81;102405.69;4978474;28;45364;-62
2022/01/27 09:19:38;;;;;;;;;58.25;43.00;;;;;4.55;66.96;102396.94;4978876;28;45326;-62
2022/01/27 09:22:13;;;;;;;;;53.50;39.75;;;;;4.57;66.89;102395.16;4979208;28;45536;-62
2022/01/27 09:24:57;;;;;;;;;58.50;40.00;;;;;4.60;66.78;102399.38;4946320;28;45645;-62
2022/01/27 09:27:30;;;;;;;;;56.25;43.25;;;;;4.65;66.72;102401.84;4949293;28;45613;-62
2022/01/27 09:30:01;;;;;;;;;54.75;38.75;;;;;4.67;66.92;102398.28;4946616;28;45369;-63
2022/01/27 09:32:32;;;;;;;;;56.25;42.75;;;;;4.72;66.62;102404.19;4978866;28;45581;-62
2022/01/27 09:34:58;;;;;;;;;67.75;49.50;;;;;4.74;66.55;102391.97;4946576;28;46683;-61
2022/01/27 09:37:33;;;;;;;;;66.00;46.25;;;;;4.77;66.32;102400.59;4978378;28;58895;-62
2022/01/27 09:39:58;;;;;;;;;67.75;48.50;;;;;4.80;66.58;102398.72;4961917;28;45379;-63
2022/01/27 09:42:27;;;;;;;;;59.25;41.50;;;;;4.82;66.25;102402.13;4961147;28;45485;-63
2022/01/27 09:44:53;;;;;;;;;59.75;46.00;;;;;4.83;66.22;102400.38;4977831;28;45697;-62
2022/01/27 09:47:19;;;;;;;;;61.50;47.50;;;;;4.87;66.27;102397.59;4961154;28;45674;-62
2022/01/27 09:49:54;;;;;;;;;62.25;47.75;;;;;4.92;66.27;102391.38;4977885;28;45287;-61
2022/01/27 09:52:19;;;;;;;;;55.00;42.25;;;;;4.92;65.91;102400.06;4978229;28;45453;-62
2022/01/27 09:54:45;;;;;;;;;58.00;46.25;;;;;4.93;66.17;102398.31;4977367;28;73368;-62
2022/01/27 09:57:10;;;;;;;;;76.25;56.00;;;;;4.94;66.14;102390.44;4978409;28;45481;-62
2022/01/27 09:59:36;;;;;;;;;54.75;40.75;;;;;4.96;66.07;102382.56;4977854;28;59033;-62
2022/01/27 10:02:03;;;;;;;;;63.25;46.75;;;;;4.97;66.09;102377.31;4977548;28;69751;-62
2022/01/27 10:04:50;;;;;;;;;73.25;52.25;;;;;5.01;66.08;102378.91;4977914;28;45449;-62
2022/01/27 10:07:20;;;;;;;;;65.00;46.25;;;;;5.05;66.01;102382.25;4978281;28;45270;-61
2022/01/27 10:09:56;;;;;;;;;64.25;46.50;;;;;5.08;65.89;102376.94;4978225;28;45350;-63
2022/01/27 10:12:36;;;;;;;;;62.75;43.75;;;;;5.14;66.11;102383.66;4977949;28;45585;-62
2022/01/27 10:15:14;;;;;;;;;56.00;42.75;;;;;5.18;66.04;102383.50;4945394;28;46141;-61
2022/01/27 10:18:04;;;;;;;;;67.25;45.25;;;;;5.26;65.73;102385.00;4977541;28;45194;-62
2022/01/27 10:20:29;;;;;;;;;57.75;42.50;;;;;5.32;65.61;102393.44;4977450;28;45372;-62
2022/01/27 10:23:23;;;;;;;;;62.00;43.00;;;;;5.38;65.46;102389.75;4976454;28;64785;-63
2022/01/27 10:25:53;;;;;;;;;58.00;42.00;;;;;5.42;65.48;102388.72;4977235;28;46200;-61
2022/01/27 10:29:05;;;;;;;;;56.50;40.00;;;;;5.44;65.04;102399.94;4945005;28;45325;-62
2022/01/27 10:31:28;;;;;;;;;58.00;39.25;;;;;5.46;65.23;102408.56;4963183;28;45397;-63
2022/01/27 10:34:04;;;;;;;;;57.75;44.00;;;;;5.49;64.79;102405.00;4960295;28;45635;-61
2022/01/27 10:36:31;;;;;;;;;53.50;41.75;;;;;5.52;65.07;102396.22;4977512;28;46776;-61
2022/01/27 10:39:00;;;;;;;;;58.75;42.75;;;;;5.52;65.01;102384.03;4977645;28;45251;-62
2022/01/27 10:41:29;;;;;;;;;64.25;42.50;;;;;5.52;64.91;102391.84;4977736;28;45445;-62
2022/01/27 10:44:12;;;;;;;;;65.50;45.25;;;;;5.55;65.08;102389.13;4960819;28;45600;-61
2022/01/27 10:46:49;;;;;;;;;63.25;42.00;;;;;5.58;65.09;102382.94;4977552;28;45340;-63
2022/01/27 10:49:25;;;;;;;;;62.75;45.25;;;;;5.60;64.75;102386.34;4977440;28;45870;-61
2022/01/27 10:51:53;;;;;;;;;56.00;43.25;;;;;5.61;64.77;102388.88;4959748;28;45410;-63
2022/01/27 10:54:41;;;;;;;;;56.00;43.75;;;;;5.61;64.85;102386.28;4977104;28;45611;-62
2022/01/27 10:57:11;;;;;;;;;60.50;39.00;;;;;5.64;64.81;102382.72;4959747;28;46281;-62
2022/01/27 10:59:36;;;;;;;;;64.25;46.25;;;;;5.64;64.71;102385.31;4959720;28;45724;-63
2022/01/27 11:02:06;;;;;;;;;75.00;59.50;;;;;5.68;64.48;102384.31;4942607;28;45319;-62
2022/01/27 11:04:39;;;;;;;;;65.25;49.25;;;;;5.68;64.78;102383.44;4977495;28;45497;-62
2022/01/27 11:07:10;;;;;;;;;66.50;48.50;;;;;5.71;64.83;102384.19;4959026;28;46601;-61
2022/01/27 11:09:41;;;;;;;;;65.50;45.00;;;;;5.72;64.59;102380.66;4975787;28;46049;-62
2022/01/27 11:12:12;;;;;;;;;54.25;41.50;;;;;5.75;64.61;102388.38;4960583;28;45437;-62
2022/01/27 11:14:37;;;;;;;;;65.50;48.25;;;;;5.74;64.81;102383.22;4977495;28;45424;-63
2022/01/27 11:17:04;;;;;;;;;59.50;46.25;;;;;5.76;64.64;102371.81;4959598;28;46206;-62
2022/01/27 11:22:26;;;;;;;;;62.00;45.00;;;;;5.79;64.51;102384.75;4977418;28;45362;-63
2022/01/27 11:27:44;;;;;;;;;59.50;43.25;;;;;5.85;64.82;102369.75;4963195;28;45454;-61
2022/01/27 11:30:22;;;;;;;;;54.00;41.00;;;;;5.87;64.60;102379.22;4943502;28;45233;-63
2022/01/27 11:32:59;;;;;;;;;57.50;39.25;;;;;5.90;64.69;102368.66;4977217;28;45410;-62
2022/01/27 11:35:25;;;;;;;;;61.00;45.00;;;;;5.96;64.47;102370.19;4975938;28;45326;-62
2022/01/27 11:37:52;;;;;;;;;56.75;41.00;;;;;5.98;64.44;102364.91;4976911;28;46030;-62
2022/01/27 11:40:18;;;;;;;;;58.25;43.00;;;;;6.00;64.29;102355.25;4976963;28;45257;-62
2022/01/27 11:42:55;;;;;;;;;64.25;46.50;;;;;6.01;64.41;102355.22;4976764;28;45433;-61
2022/01/27 11:45:21;;;;;;;;;59.50;41.00;;;;;6.03;64.23;102361.22;4976910;28;45349;-63
2022/01/27 11:48:05;;;;;;;;;60.00;43.00;;;;;6.07;64.37;102357.59;4976802;28;46512;-61
2022/01/27 11:50:36;;;;;;;;;57.25;43.50;;;;;6.09;64.22;102353.16;4976658;28;45370;-62
2022/01/27 11:53:08;;;;;;;;;60.75;44.75;;;;;6.13;64.22;102347.81;4976466;28;45248;-64
2022/01/27 11:55:33;;;;;;;;;63.25;43.25;;;;;6.15;64.00;102343.38;4976710;28;45487;-62
2022/01/27 11:58:15;;;;;;;;;59.33;44.67;;;;;6.17;64.10;102339.78;4976518;28;45315;-62
2022/01/27 12:00:41;;;;;;;;;62.25;44.00;;;;;6.20;63.88;102336.22;4976519;28;45390;-61
2022/01/27 12:03:18;;;;;;;;;52.25;39.75;;;;;6.23;64.01;102338.69;4941976;28;45762;-63
2022/01/27 12:05:46;;;;;;;;;62.00;45.50;;;;;6.26;64.03;102333.34;4959786;28;45458;-62
2022/01/27 12:08:19;;;;;;;;;73.75;53.00;;;;;6.30;64.08;102341.91;4958808;28;46177;-63
2022/01/27 12:10:51;;;;;;;;;53.00;42.00;;;;;6.34;63.98;102340.84;4957980;28;45460;-62